sensor_id;sensor_type;location;lat;lon;timestamp;temperature;humidity
10010;DHT22;5044;48.652;9.250;2022-12-16T00:01:05;-2.50;99.90
10010;DHT22;5044;48.652;9.250;2022-12-16T00:03:32;-2.50;99.90
10010;DHT22;5044;48.652;9.250;2022-12-16T00:06:00;-2.60;99.90
10010;DHT22;5044;48.652;9.250;2022-12-16T00:08:31;-2.60;99.90
10010;DHT22;5044;48.652;9.250;2022-12-16T00:10:59;-2.60;99.90
10010;DHT22;5044;48.652;9.250;2022-12-16T00:13:28;-2.60;99.90
10010;DHT22;5044;48.652;9.250;2022-12-16T00:15:56;-2.50;99.90
10010;DHT22;5044;48.652;9.250;2022-12-16T00:18:23;-2.60;99.90
10010;DHT22;5044;48.652;9.250;2022-12-16T00:20:52;-2.50;99.90
10010;DHT22;5044;48.652;9.250;2022-12-16T00:23:21;-2.50;99.90
10010;DHT22;5044;48.652;9.250;2022-12-16T00:25:49;-2.50;99.90
10010;DHT22;5044;48.652;9.250;2022-12-16T00:28:17;-2.50;99.90
10010;DHT22;5044;48.652;9.250;2022-12-16T00:30:48;-2.50;99.90
10010;DHT22;5044;48.652;9.250;2022-12-16T00:33:15;-2.60;99.90
10010;DHT22;5044;48.652;9.250;2022-12-16T00:35:43;-2.60;99.90
10010;DHT22;5044;48.652;9.250;2022-12-16T00:38:10;-2.60;99.90
10010;DHT22;5044;48.652;9.250;2022-12-16T00:40:39;-2.60;99.90
10010;DHT22;5044;48.652;9.250;2022-12-16T00:43:06;-2.60;99.90
10010;DHT22;5044;48.652;9.250;2022-12-16T00:45:33;-2.60;99.90
10010;DHT22;5044;48.652;9.250;2022-12-16T00:48:00;-2.60;99.90
10010;DHT22;5044;48.652;9.250;2022-12-16T00:50:27;-2.60;99.90
10010;DHT22;5044;48.652;9.250;2022-12-16T00:52:54;-2.60;99.90
10010;DHT22;5044;48.652;9.250;2022-12-16T00:55:21;-2.60;99.90
10010;DHT22;5044;48.652;9.250;2022-12-16T00:57:52;-2.60;99.90
10010;DHT22;5044;48.652;9.250;2022-12-16T01:00:21;-2.50;99.90
10010;DHT22;5044;48.652;9.250;2022-12-16T01:02:49;-2.50;99.90
10010;DHT22;5044;48.652;9.250;2022-12-16T01:05:22;-2.60;99.90
10010;DHT22;5044;48.652;9.250;2022-12-16T01:07:51;-2.60;99.90
10010;DHT22;5044;48.652;9.250;2022-12-16T01:10:18;-2.50;99.90
10010;DHT22;5044;48.652;9.250;2022-12-16T01:12:45;-2.50;99.90
10010;DHT22;5044;48.652;9.250;2022-12-16T01:15:13;-2.60;99.90
10010;DHT22;5044;48.652;9.250;2022-12-16T01:17:41;-2.60;99.90
10010;DHT22;5044;48.652;9.250;2022-12-16T01:20:09;-2.70;99.90
10010;DHT22;5044;48.652;9.250;2022-12-16T01:22:36;-2.60;99.90
10010;DHT22;5044;48.652;9.250;2022-12-16T01:25:04;-2.70;99.90
10010;DHT22;5044;48.652;9.250;2022-12-16T01:27:31;-2.70;99.90
10010;DHT22;5044;48.652;9.250;2022-12-16T01:29:58;-2.60;99.90
10010;DHT22;5044;48.652;9.250;2022-12-16T01:32:26;-2.70;99.90
10010;DHT22;5044;48.652;9.250;2022-12-16T01:34:54;-2.60;99.90
10010;DHT22;5044;48.652;9.250;2022-12-16T01:37:21;-2.60;99.90
10010;DHT22;5044;48.652;9.250;2022-12-16T01:39:48;-2.60;99.90
10010;DHT22;5044;48.652;9.250;2022-12-16T01:42:18;-2.70;99.90
10010;DHT22;5044;48.652;9.250;2022-12-16T01:44:47;-2.70;99.90
10010;DHT22;5044;48.652;9.250;2022-12-16T01:47:16;-2.60;99.90
10010;DHT22;5044;48.652;9.250;2022-12-16T01:49:47;-2.60;99.90
10010;DHT22;5044;48.652;9.250;2022-12-16T01:52:16;-2.60;99.90
10010;DHT22;5044;48.652;9.250;2022-12-16T01:54:48;-2.60;99.90
10010;DHT22;5044;48.652;9.250;2022-12-16T01:57:20;-2.70;99.90
10010;DHT22;5044;48.652;9.250;2022-12-16T01:59:50;-2.70;99.90
10010;DHT22;5044;48.652;9.250;2022-12-16T02:02:18;-2.60;99.90
10010;DHT22;5044;48.652;9.250;2022-12-16T02:04:48;-2.70;99.90
10010;DHT22;5044;48.652;9.250;2022-12-16T02:07:28;-2.70;99.90
10010;DHT22;5044;48.652;9.250;2022-12-16T02:09:55;-2.70;99.90
10010;DHT22;5044;48.652;9.250;2022-12-16T02:12:27;-2.70;99.90
10010;DHT22;5044;48.652;9.250;2022-12-16T02:15:12;-2.40;99.90
10010;DHT22;5044;48.652;9.250;2022-12-16T02:17:46;-2.70;99.90
10010;DHT22;5044;48.652;9.250;2022-12-16T02:20:38;-2.70;99.90
10010;DHT22;5044;48.652;9.250;2022-12-16T02:23:29;-2.70;99.90
10010;DHT22;5044;48.652;9.250;2022-12-16T02:26:18;-2.70;99.90
10010;DHT22;5044;48.652;9.250;2022-12-16T02:29:14;-2.70;99.90
10010;DHT22;5044;48.652;9.250;2022-12-16T02:31:51;-2.70;99.90
10010;DHT22;5044;48.652;9.250;2022-12-16T02:34:24;-2.80;99.90
10010;DHT22;5044;48.652;9.250;2022-12-16T02:37:03;-2.80;99.90
10010;DHT22;5044;48.652;9.250;2022-12-16T02:39:35;-2.80;99.90
10010;DHT22;5044;48.652;9.250;2022-12-16T02:42:10;-2.80;99.90
10010;DHT22;5044;48.652;9.250;2022-12-16T02:44:43;-2.80;99.90
10010;DHT22;5044;48.652;9.250;2022-12-16T02:47:14;-2.80;99.90
10010;DHT22;5044;48.652;9.250;2022-12-16T02:49:46;-2.80;99.90
10010;DHT22;5044;48.652;9.250;2022-12-16T02:52:13;-2.80;99.90
10010;DHT22;5044;48.652;9.250;2022-12-16T02:54:41;-2.80;99.90
10010;DHT22;5044;48.652;9.250;2022-12-16T03:00:04;-2.70;99.90
10010;DHT22;5044;48.652;9.250;2022-12-16T03:02:40;-2.70;99.90
10010;DHT22;5044;48.652;9.250;2022-12-16T03:05:13;-2.70;99.90
10010;DHT22;5044;48.652;9.250;2022-12-16T03:07:42;-2.70;99.90
10010;DHT22;5044;48.652;9.250;2022-12-16T03:10:14;-2.70;99.90
10010;DHT22;5044;48.652;9.250;2022-12-16T03:12:44;-2.70;99.90
10010;DHT22;5044;48.652;9.250;2022-12-16T03:15:13;-2.70;99.90
10010;DHT22;5044;48.652;9.250;2022-12-16T03:17:44;-2.80;99.90
10010;DHT22;5044;48.652;9.250;2022-12-16T03:20:17;-2.80;99.90
10010;DHT22;5044;48.652;9.250;2022-12-16T03:22:47;-2.80;99.90
10010;DHT22;5044;48.652;9.250;2022-12-16T03:25:17;-2.80;99.90
10010;DHT22;5044;48.652;9.250;2022-12-16T03:27:51;-2.90;99.90
10010;DHT22;5044;48.652;9.250;2022-12-16T03:30:23;-2.90;99.90
10010;DHT22;5044;48.652;9.250;2022-12-16T03:32:57;-2.90;99.90
10010;DHT22;5044;48.652;9.250;2022-12-16T03:35:28;-2.90;99.90
10010;DHT22;5044;48.652;9.250;2022-12-16T03:37:58;-3.00;99.90
10010;DHT22;5044;48.652;9.250;2022-12-16T03:40:28;-2.90;99.90
10010;DHT22;5044;48.652;9.250;2022-12-16T03:42:56;-3.00;99.90
10010;DHT22;5044;48.652;9.250;2022-12-16T03:45:26;-3.00;99.90
10010;DHT22;5044;48.652;9.250;2022-12-16T03:47:57;-3.00;99.90
10010;DHT22;5044;48.652;9.250;2022-12-16T03:50:28;-3.10;99.90
10010;DHT22;5044;48.652;9.250;2022-12-16T03:52:57;-3.10;99.90
10010;DHT22;5044;48.652;9.250;2022-12-16T03:55:23;-3.10;99.90
10010;DHT22;5044;48.652;9.250;2022-12-16T03:57:53;-3.20;99.90
10010;DHT22;5044;48.652;9.250;2022-12-16T04:00:22;-3.20;99.90
10010;DHT22;5044;48.652;9.250;2022-12-16T04:02:49;-3.20;99.90
10010;DHT22;5044;48.652;9.250;2022-12-16T04:05:18;-3.20;99.90
10010;DHT22;5044;48.652;9.250;2022-12-16T04:07:45;-3.20;99.90
10010;DHT22;5044;48.652;9.250;2022-12-16T04:10:13;-3.20;99.90
10010;DHT22;5044;48.652;9.250;2022-12-16T04:12:40;-3.20;99.90
10010;DHT22;5044;48.652;9.250;2022-12-16T04:15:25;-3.20;99.90
10010;DHT22;5044;48.652;9.250;2022-12-16T04:18:13;-3.20;99.90
10010;DHT22;5044;48.652;9.250;2022-12-16T04:21:08;-3.20;99.90
10010;DHT22;5044;48.652;9.250;2022-12-16T04:23:54;-3.20;99.90
10010;DHT22;5044;48.652;9.250;2022-12-16T04:26:39;-3.20;99.90
10010;DHT22;5044;48.652;9.250;2022-12-16T04:29:20;-3.20;99.90
10010;DHT22;5044;48.652;9.250;2022-12-16T04:31:48;-3.30;99.90
10010;DHT22;5044;48.652;9.250;2022-12-16T04:34:15;-3.30;99.90
10010;DHT22;5044;48.652;9.250;2022-12-16T04:36:57;-3.30;99.90
10010;DHT22;5044;48.652;9.250;2022-12-16T04:39:41;-3.20;99.90
10010;DHT22;5044;48.652;9.250;2022-12-16T04:42:26;-3.30;99.90
10010;DHT22;5044;48.652;9.250;2022-12-16T04:45:10;-3.30;99.90
10010;DHT22;5044;48.652;9.250;2022-12-16T04:47:54;-3.30;99.90
10010;DHT22;5044;48.652;9.250;2022-12-16T04:50:37;-3.30;99.90
10010;DHT22;5044;48.652;9.250;2022-12-16T04:53:24;-3.30;99.90
10010;DHT22;5044;48.652;9.250;2022-12-16T04:56:08;-3.30;99.90
10010;DHT22;5044;48.652;9.250;2022-12-16T04:58:52;-3.30;99.90
10010;DHT22;5044;48.652;9.250;2022-12-16T05:01:36;-3.30;99.90
10010;DHT22;5044;48.652;9.250;2022-12-16T05:04:20;-3.30;99.90
10010;DHT22;5044;48.652;9.250;2022-12-16T05:07:04;-3.30;99.90
10010;DHT22;5044;48.652;9.250;2022-12-16T05:09:50;-3.30;99.90
10010;DHT22;5044;48.652;9.250;2022-12-16T05:12:34;-3.30;99.90
10010;DHT22;5044;48.652;9.250;2022-12-16T05:15:18;-3.30;99.90
10010;DHT22;5044;48.652;9.250;2022-12-16T05:18:07;-3.30;99.90
10010;DHT22;5044;48.652;9.250;2022-12-16T05:20:52;-3.30;99.90
10010;DHT22;5044;48.652;9.250;2022-12-16T05:23:36;-3.30;99.90
10010;DHT22;5044;48.652;9.250;2022-12-16T05:26:22;-3.30;99.90
10010;DHT22;5044;48.652;9.250;2022-12-16T05:29:07;-3.30;99.90
10010;DHT22;5044;48.652;9.250;2022-12-16T05:31:51;-3.30;99.90
10010;DHT22;5044;48.652;9.250;2022-12-16T05:34:35;-3.30;99.90
10010;DHT22;5044;48.652;9.250;2022-12-16T05:37:19;-3.30;99.90
10010;DHT22;5044;48.652;9.250;2022-12-16T05:40:04;-3.30;99.90
10010;DHT22;5044;48.652;9.250;2022-12-16T05:43:04;-3.30;99.90
10010;DHT22;5044;48.652;9.250;2022-12-16T05:45:49;-3.40;99.90
10010;DHT22;5044;48.652;9.250;2022-12-16T05:48:33;-3.40;99.90
10010;DHT22;5044;48.652;9.250;2022-12-16T05:51:17;-3.40;99.90
10010;DHT22;5044;48.652;9.250;2022-12-16T05:54:01;-3.40;99.90
10010;DHT22;5044;48.652;9.250;2022-12-16T05:56:45;-3.40;99.90
10010;DHT22;5044;48.652;9.250;2022-12-16T05:59:31;-3.40;99.90
10010;DHT22;5044;48.652;9.250;2022-12-16T06:02:15;-3.40;99.90
10010;DHT22;5044;48.652;9.250;2022-12-16T06:04:59;-3.40;99.90
10010;DHT22;5044;48.652;9.250;2022-12-16T06:07:49;-3.40;99.90
10010;DHT22;5044;48.652;9.250;2022-12-16T06:10:34;-3.40;99.90
10010;DHT22;5044;48.652;9.250;2022-12-16T06:13:18;-3.40;99.90
10010;DHT22;5044;48.652;9.250;2022-12-16T06:16:04;-3.40;99.90
10010;DHT22;5044;48.652;9.250;2022-12-16T06:18:48;-3.40;99.90
10010;DHT22;5044;48.652;9.250;2022-12-16T06:21:32;-3.40;99.90
10010;DHT22;5044;48.652;9.250;2022-12-16T06:24:16;-3.40;99.90
10010;DHT22;5044;48.652;9.250;2022-12-16T06:27:00;-3.40;99.90
10010;DHT22;5044;48.652;9.250;2022-12-16T06:29:44;-3.30;99.90
10010;DHT22;5044;48.652;9.250;2022-12-16T06:32:30;-3.30;99.90
10010;DHT22;5044;48.652;9.250;2022-12-16T06:35:15;-3.30;99.90
10010;DHT22;5044;48.652;9.250;2022-12-16T06:37:59;-3.40;99.90
10010;DHT22;5044;48.652;9.250;2022-12-16T06:40:43;-3.30;99.90
10010;DHT22;5044;48.652;9.250;2022-12-16T06:43:27;-3.40;99.90
10010;DHT22;5044;48.652;9.250;2022-12-16T06:46:11;-3.40;99.90
10010;DHT22;5044;48.652;9.250;2022-12-16T06:48:57;-3.40;99.90
10010;DHT22;5044;48.652;9.250;2022-12-16T06:51:41;-3.40;99.90
10010;DHT22;5044;48.652;9.250;2022-12-16T06:54:26;-3.30;99.90
10010;DHT22;5044;48.652;9.250;2022-12-16T06:57:10;-3.40;99.90
10010;DHT22;5044;48.652;9.250;2022-12-16T06:59:54;-3.40;99.90
10010;DHT22;5044;48.652;9.250;2022-12-16T07:02:38;-3.40;99.90
10010;DHT22;5044;48.652;9.250;2022-12-16T07:05:20;-3.40;99.90
10010;DHT22;5044;48.652;9.250;2022-12-16T07:08:16;-3.40;99.90
10010;DHT22;5044;48.652;9.250;2022-12-16T07:11:00;-3.40;99.90
10010;DHT22;5044;48.652;9.250;2022-12-16T07:13:44;-3.40;99.90
10010;DHT22;5044;48.652;9.250;2022-12-16T07:16:29;-3.40;99.90
10010;DHT22;5044;48.652;9.250;2022-12-16T07:19:13;-3.40;99.90
10010;DHT22;5044;48.652;9.250;2022-12-16T07:21:58;-3.30;99.90
10010;DHT22;5044;48.652;9.250;2022-12-16T07:24:43;-3.30;99.90
10010;DHT22;5044;48.652;9.250;2022-12-16T07:27:27;-3.30;99.90
10010;DHT22;5044;48.652;9.250;2022-12-16T07:30:11;-3.30;99.90
10010;DHT22;5044;48.652;9.250;2022-12-16T07:32:55;-3.30;99.90
10010;DHT22;5044;48.652;9.250;2022-12-16T07:35:41;-3.30;99.90
10010;DHT22;5044;48.652;9.250;2022-12-16T07:38:27;-3.30;99.90
10010;DHT22;5044;48.652;9.250;2022-12-16T07:41:11;-3.30;99.90
10010;DHT22;5044;48.652;9.250;2022-12-16T07:43:55;-3.30;99.90
10010;DHT22;5044;48.652;9.250;2022-12-16T07:46:39;-3.20;99.90
10010;DHT22;5044;48.652;9.250;2022-12-16T07:49:24;-3.20;99.90
10010;DHT22;5044;48.652;9.250;2022-12-16T07:52:08;-3.20;99.90
10010;DHT22;5044;48.652;9.250;2022-12-16T07:54:53;-3.20;99.90
10010;DHT22;5044;48.652;9.250;2022-12-16T07:57:37;-3.20;99.90
10010;DHT22;5044;48.652;9.250;2022-12-16T08:00:21;-3.10;99.90
10010;DHT22;5044;48.652;9.250;2022-12-16T08:03:06;-3.00;99.90
10010;DHT22;5044;48.652;9.250;2022-12-16T08:05:50;-3.10;99.90
10010;DHT22;5044;48.652;9.250;2022-12-16T08:08:34;-3.00;99.90
10010;DHT22;5044;48.652;9.250;2022-12-16T08:11:20;-3.00;99.90
10010;DHT22;5044;48.652;9.250;2022-12-16T08:14:04;-3.00;99.90
10010;DHT22;5044;48.652;9.250;2022-12-16T08:17:00;-2.90;99.90
10010;DHT22;5044;48.652;9.250;2022-12-16T08:19:44;-2.90;99.90
10010;DHT22;5044;48.652;9.250;2022-12-16T08:22:28;-2.90;99.90
10010;DHT22;5044;48.652;9.250;2022-12-16T08:25:13;-2.90;99.90
10010;DHT22;5044;48.652;9.250;2022-12-16T08:27:59;-2.80;99.90
10010;DHT22;5044;48.652;9.250;2022-12-16T08:30:48;-2.80;99.90
10010;DHT22;5044;48.652;9.250;2022-12-16T08:33:33;-2.70;99.90
10010;DHT22;5044;48.652;9.250;2022-12-16T08:36:17;-2.70;99.90
10010;DHT22;5044;48.652;9.250;2022-12-16T08:39:01;-2.70;99.90
10010;DHT22;5044;48.652;9.250;2022-12-16T08:41:46;-2.70;99.90
10010;DHT22;5044;48.652;9.250;2022-12-16T08:44:31;-2.60;99.90
10010;DHT22;5044;48.652;9.250;2022-12-16T08:47:16;-2.50;99.90
10010;DHT22;5044;48.652;9.250;2022-12-16T08:50:11;-2.50;99.90
10010;DHT22;5044;48.652;9.250;2022-12-16T08:52:56;-2.50;99.90
10010;DHT22;5044;48.652;9.250;2022-12-16T08:55:40;-2.50;99.90
10010;DHT22;5044;48.652;9.250;2022-12-16T08:58:25;-2.50;99.90
10010;DHT22;5044;48.652;9.250;2022-12-16T09:01:10;-2.50;99.90
10010;DHT22;5044;48.652;9.250;2022-12-16T09:03:54;-2.50;99.90
10010;DHT22;5044;48.652;9.250;2022-12-16T09:06:38;-2.50;99.90
10010;DHT22;5044;48.652;9.250;2022-12-16T09:09:22;-2.50;99.90
10010;DHT22;5044;48.652;9.250;2022-12-16T09:12:06;-2.50;99.90
10010;DHT22;5044;48.652;9.250;2022-12-16T09:14:51;-2.40;99.90
10010;DHT22;5044;48.652;9.250;2022-12-16T09:17:36;-2.40;99.90
10010;DHT22;5044;48.652;9.250;2022-12-16T09:20:21;-2.40;99.90
10010;DHT22;5044;48.652;9.250;2022-12-16T09:23:05;-2.40;99.90
10010;DHT22;5044;48.652;9.250;2022-12-16T09:25:49;-2.40;99.90
10010;DHT22;5044;48.652;9.250;2022-12-16T09:28:38;-2.40;99.90
10010;DHT22;5044;48.652;9.250;2022-12-16T09:31:23;-2.20;99.90
10010;DHT22;5044;48.652;9.250;2022-12-16T09:34:09;-2.10;99.90
10010;DHT22;5044;48.652;9.250;2022-12-16T09:37:01;-2.10;99.90
10010;DHT22;5044;48.652;9.250;2022-12-16T09:39:46;-2.00;99.90
10010;DHT22;5044;48.652;9.250;2022-12-16T09:42:36;-1.50;99.90
10010;DHT22;5044;48.652;9.250;2022-12-16T09:45:32;-1.80;99.90
10010;DHT22;5044;48.652;9.250;2022-12-16T09:48:23;-1.80;99.90
10010;DHT22;5044;48.652;9.250;2022-12-16T09:51:13;-1.80;99.90
10010;DHT22;5044;48.652;9.250;2022-12-16T09:53:59;-1.90;99.90
10010;DHT22;5044;48.652;9.250;2022-12-16T09:56:44;-1.90;99.90
10010;DHT22;5044;48.652;9.250;2022-12-16T09:59:33;-1.90;99.90
10010;DHT22;5044;48.652;9.250;2022-12-16T10:02:19;-1.90;99.90
10010;DHT22;5044;48.652;9.250;2022-12-16T10:05:09;-1.90;99.90
10010;DHT22;5044;48.652;9.250;2022-12-16T10:08:00;-1.90;99.90
10010;DHT22;5044;48.652;9.250;2022-12-16T10:10:51;-1.90;99.90
10010;DHT22;5044;48.652;9.250;2022-12-16T10:13:54;-2.00;99.90
10010;DHT22;5044;48.652;9.250;2022-12-16T10:16:50;-1.90;99.90
10010;DHT22;5044;48.652;9.250;2022-12-16T10:19:42;-1.90;99.90
10010;DHT22;5044;48.652;9.250;2022-12-16T10:22:33;-1.90;99.90
10010;DHT22;5044;48.652;9.250;2022-12-16T10:25:24;-1.90;99.90
10010;DHT22;5044;48.652;9.250;2022-12-16T10:28:15;-1.80;99.90
10010;DHT22;5044;48.652;9.250;2022-12-16T10:31:00;-1.70;99.90
10010;DHT22;5044;48.652;9.250;2022-12-16T10:33:48;-1.60;99.90
10010;DHT22;5044;48.652;9.250;2022-12-16T10:36:34;-1.60;99.90
10010;DHT22;5044;48.652;9.250;2022-12-16T10:39:24;-1.60;99.90
10010;DHT22;5044;48.652;9.250;2022-12-16T10:42:19;-1.60;99.90
10010;DHT22;5044;48.652;9.250;2022-12-16T10:45:13;-1.50;99.90
10010;DHT22;5044;48.652;9.250;2022-12-16T10:48:00;-1.50;99.90
10010;DHT22;5044;48.652;9.250;2022-12-16T10:50:44;-1.60;99.90
10010;DHT22;5044;48.652;9.250;2022-12-16T10:53:36;-1.70;99.90
10010;DHT22;5044;48.652;9.250;2022-12-16T10:56:37;-1.70;99.90
10010;DHT22;5044;48.652;9.250;2022-12-16T10:59:36;-1.80;99.90
10010;DHT22;5044;48.652;9.250;2022-12-16T11:02:23;-1.70;99.90
10010;DHT22;5044;48.652;9.250;2022-12-16T11:05:28;-1.70;99.90
10010;DHT22;5044;48.652;9.250;2022-12-16T11:08:31;-1.70;99.90
10010;DHT22;5044;48.652;9.250;2022-12-16T11:11:20;-1.50;99.90
10010;DHT22;5044;48.652;9.250;2022-12-16T11:14:22;-1.60;99.90
10010;DHT22;5044;48.652;9.250;2022-12-16T11:17:24;-1.50;99.90
10010;DHT22;5044;48.652;9.250;2022-12-16T11:20:15;-1.50;99.90
10010;DHT22;5044;48.652;9.250;2022-12-16T11:23:08;-1.50;99.90
10010;DHT22;5044;48.652;9.250;2022-12-16T11:26:10;-1.40;99.90
10010;DHT22;5044;48.652;9.250;2022-12-16T11:29:03;-1.40;99.90
10010;DHT22;5044;48.652;9.250;2022-12-16T11:31:50;-1.30;99.90
10010;DHT22;5044;48.652;9.250;2022-12-16T11:34:39;-1.40;99.90
10010;DHT22;5044;48.652;9.250;2022-12-16T11:37:30;-1.30;99.90
10010;DHT22;5044;48.652;9.250;2022-12-16T11:40:16;-1.30;99.90
10010;DHT22;5044;48.652;9.250;2022-12-16T11:43:02;-1.10;99.90
10010;DHT22;5044;48.652;9.250;2022-12-16T11:45:49;-1.10;99.90
10010;DHT22;5044;48.652;9.250;2022-12-16T11:48:39;-1.10;99.90
10010;DHT22;5044;48.652;9.250;2022-12-16T11:51:29;-1.30;99.90
10010;DHT22;5044;48.652;9.250;2022-12-16T11:54:18;-1.10;99.90
10010;DHT22;5044;48.652;9.250;2022-12-16T11:57:10;-1.20;99.90
10010;DHT22;5044;48.652;9.250;2022-12-16T12:00:15;-0.80;99.90
10010;DHT22;5044;48.652;9.250;2022-12-16T12:03:04;-1.10;99.90
10010;DHT22;5044;48.652;9.250;2022-12-16T12:05:56;-0.80;99.90
10010;DHT22;5044;48.652;9.250;2022-12-16T12:08:51;-1.10;99.90
10010;DHT22;5044;48.652;9.250;2022-12-16T12:11:44;-0.90;99.90
10010;DHT22;5044;48.652;9.250;2022-12-16T12:14:35;-1.00;99.90
10010;DHT22;5044;48.652;9.250;2022-12-16T12:17:31;-1.00;99.90
10010;DHT22;5044;48.652;9.250;2022-12-16T12:20:33;-1.00;99.90
10010;DHT22;5044;48.652;9.250;2022-12-16T12:23:28;-0.90;99.90
10010;DHT22;5044;48.652;9.250;2022-12-16T12:26:22;-0.80;99.50
10010;DHT22;5044;48.652;9.250;2022-12-16T12:29:16;-0.70;99.80
10010;DHT22;5044;48.652;9.250;2022-12-16T12:32:06;-0.70;99.90
10010;DHT22;5044;48.652;9.250;2022-12-16T12:34:55;-0.70;99.90
10010;DHT22;5044;48.652;9.250;2022-12-16T12:37:44;-0.60;99.90
10010;DHT22;5044;48.652;9.250;2022-12-16T12:40:37;-0.60;99.90
10010;DHT22;5044;48.652;9.250;2022-12-16T12:43:35;-0.70;97.90
10010;DHT22;5044;48.652;9.250;2022-12-16T12:46:28;-0.70;99.90
10010;DHT22;5044;48.652;9.250;2022-12-16T12:49:20;-0.80;99.90
10010;DHT22;5044;48.652;9.250;2022-12-16T12:52:17;-0.70;99.90
10010;DHT22;5044;48.652;9.250;2022-12-16T12:55:09;-0.70;99.30
10010;DHT22;5044;48.652;9.250;2022-12-16T12:57:58;-0.80;99.10
10010;DHT22;5044;48.652;9.250;2022-12-16T13:00:56;-0.70;99.90
10010;DHT22;5044;48.652;9.250;2022-12-16T13:03:44;-0.80;99.90
10010;DHT22;5044;48.652;9.250;2022-12-16T13:06:30;-0.80;99.50
10010;DHT22;5044;48.652;9.250;2022-12-16T13:09:30;-0.80;99.90
10010;DHT22;5044;48.652;9.250;2022-12-16T13:12:26;-0.70;99.80
10010;DHT22;5044;48.652;9.250;2022-12-16T13:15:18;-0.80;98.00
10010;DHT22;5044;48.652;9.250;2022-12-16T13:18:22;-0.80;99.90
10010;DHT22;5044;48.652;9.250;2022-12-16T13:24:45;-0.90;99.20
10010;DHT22;5044;48.652;9.250;2022-12-16T13:27:49;-0.80;98.40
10010;DHT22;5044;48.652;9.250;2022-12-16T13:30:36;-0.80;98.70
10010;DHT22;5044;48.652;9.250;2022-12-16T13:33:29;-0.80;96.60
10010;DHT22;5044;48.652;9.250;2022-12-16T13:36:16;-0.70;99.50
10010;DHT22;5044;48.652;9.250;2022-12-16T13:39:21;-0.70;98.40
10010;DHT22;5044;48.652;9.250;2022-12-16T13:42:29;-0.70;97.90
10010;DHT22;5044;48.652;9.250;2022-12-16T13:45:22;-0.80;96.90
10010;DHT22;5044;48.652;9.250;2022-12-16T13:54:59;-1.00;97.10
10010;DHT22;5044;48.652;9.250;2022-12-16T13:57:48;-1.10;97.20
10010;DHT22;5044;48.652;9.250;2022-12-16T14:00:38;-1.20;97.30
10010;DHT22;5044;48.652;9.250;2022-12-16T14:03:38;-1.10;99.60
10010;DHT22;5044;48.652;9.250;2022-12-16T14:06:25;-1.20;97.60
10010;DHT22;5044;48.652;9.250;2022-12-16T14:09:22;-0.80;99.30
10010;DHT22;5044;48.652;9.250;2022-12-16T14:12:15;-1.20;99.90
10010;DHT22;5044;48.652;9.250;2022-12-16T14:15:06;-0.60;99.90
10010;DHT22;5044;48.652;9.250;2022-12-16T14:18:00;-1.30;99.90
10010;DHT22;5044;48.652;9.250;2022-12-16T14:20:50;-1.40;99.80
10010;DHT22;5044;48.652;9.250;2022-12-16T14:23:40;-1.50;99.90
10010;DHT22;5044;48.652;9.250;2022-12-16T14:26:27;-1.50;99.90
10010;DHT22;5044;48.652;9.250;2022-12-16T14:29:20;-1.60;99.90
10010;DHT22;5044;48.652;9.250;2022-12-16T14:32:19;-1.60;99.90
10010;DHT22;5044;48.652;9.250;2022-12-16T14:35:08;-1.60;99.90
10010;DHT22;5044;48.652;9.250;2022-12-16T14:37:54;-1.80;99.90
10010;DHT22;5044;48.652;9.250;2022-12-16T14:40:38;-1.90;99.90
10010;DHT22;5044;48.652;9.250;2022-12-16T14:43:25;-2.00;99.90
10010;DHT22;5044;48.652;9.250;2022-12-16T14:46:23;-2.00;99.90
10010;DHT22;5044;48.652;9.250;2022-12-16T14:49:18;-1.90;99.90
10010;DHT22;5044;48.652;9.250;2022-12-16T14:52:15;-1.90;99.90
10010;DHT22;5044;48.652;9.250;2022-12-16T14:55:12;-1.90;99.90
10010;DHT22;5044;48.652;9.250;2022-12-16T14:58:05;-1.90;99.90
10010;DHT22;5044;48.652;9.250;2022-12-16T15:00:52;-1.80;99.90
10010;DHT22;5044;48.652;9.250;2022-12-16T15:03:39;-1.80;99.90
10010;DHT22;5044;48.652;9.250;2022-12-16T15:06:26;-1.90;99.90
10010;DHT22;5044;48.652;9.250;2022-12-16T15:09:20;-1.90;99.90
10010;DHT22;5044;48.652;9.250;2022-12-16T15:12:07;-2.00;99.90
10010;DHT22;5044;48.652;9.250;2022-12-16T15:14:53;-1.90;99.90
10010;DHT22;5044;48.652;9.250;2022-12-16T15:17:44;-2.00;99.90
10010;DHT22;5044;48.652;9.250;2022-12-16T15:20:34;-1.90;99.90
10010;DHT22;5044;48.652;9.250;2022-12-16T15:23:21;-1.90;99.90
10010;DHT22;5044;48.652;9.250;2022-12-16T15:26:06;-1.90;99.90
10010;DHT22;5044;48.652;9.250;2022-12-16T15:28:51;-1.90;99.90
10010;DHT22;5044;48.652;9.250;2022-12-16T15:31:36;-1.90;99.90
10010;DHT22;5044;48.652;9.250;2022-12-16T15:34:29;-1.90;99.90
10010;DHT22;5044;48.652;9.250;2022-12-16T15:37:28;-1.20;99.90
10010;DHT22;5044;48.652;9.250;2022-12-16T15:40:22;-1.90;99.90
10010;DHT22;5044;48.652;9.250;2022-12-16T15:43:22;-2.00;99.90
10010;DHT22;5044;48.652;9.250;2022-12-16T15:46:16;-2.10;99.90
10010;DHT22;5044;48.652;9.250;2022-12-16T15:49:00;-1.60;99.90
10010;DHT22;5044;48.652;9.250;2022-12-16T15:51:46;-2.10;99.90
10010;DHT22;5044;48.652;9.250;2022-12-16T15:54:32;-2.20;99.90
10010;DHT22;5044;48.652;9.250;2022-12-16T15:57:32;-2.20;99.90
10010;DHT22;5044;48.652;9.250;2022-12-16T16:00:32;-2.40;99.90
10010;DHT22;5044;48.652;9.250;2022-12-16T16:03:21;-2.50;99.90
10010;DHT22;5044;48.652;9.250;2022-12-16T16:06:15;-2.50;99.90
10010;DHT22;5044;48.652;9.250;2022-12-16T16:09:00;-2.60;99.90
10010;DHT22;5044;48.652;9.250;2022-12-16T16:11:45;-2.60;99.90
10010;DHT22;5044;48.652;9.250;2022-12-16T16:14:30;-2.60;99.90
10010;DHT22;5044;48.652;9.250;2022-12-16T16:17:20;-2.60;99.90
10010;DHT22;5044;48.652;9.250;2022-12-16T16:20:06;-2.60;99.90
10010;DHT22;5044;48.652;9.250;2022-12-16T16:22:51;-2.50;99.90
10010;DHT22;5044;48.652;9.250;2022-12-16T16:25:35;-2.50;99.90
10010;DHT22;5044;48.652;9.250;2022-12-16T16:28:21;-2.60;99.90
10010;DHT22;5044;48.652;9.250;2022-12-16T16:31:07;-2.50;99.90
10010;DHT22;5044;48.652;9.250;2022-12-16T16:33:52;-2.60;99.90
10010;DHT22;5044;48.652;9.250;2022-12-16T16:36:37;-2.60;99.90
10010;DHT22;5044;48.652;9.250;2022-12-16T16:39:21;-1.80;99.90
10010;DHT22;5044;48.652;9.250;2022-12-16T16:42:05;-2.50;99.90
10010;DHT22;5044;48.652;9.250;2022-12-16T16:44:51;-2.50;99.90
10010;DHT22;5044;48.652;9.250;2022-12-16T16:47:35;-2.60;99.90
10010;DHT22;5044;48.652;9.250;2022-12-16T16:50:19;-2.50;99.90
10010;DHT22;5044;48.652;9.250;2022-12-16T16:53:04;-2.50;99.90
10010;DHT22;5044;48.652;9.250;2022-12-16T16:55:52;-2.50;99.90
10010;DHT22;5044;48.652;9.250;2022-12-16T16:58:37;-2.50;99.90
10010;DHT22;5044;48.652;9.250;2022-12-16T17:01:28;-2.50;99.90
10010;DHT22;5044;48.652;9.250;2022-12-16T17:04:12;-2.50;99.90
10010;DHT22;5044;48.652;9.250;2022-12-16T17:06:56;-2.50;99.90
10010;DHT22;5044;48.652;9.250;2022-12-16T17:09:55;-2.50;99.90
10010;DHT22;5044;48.652;9.250;2022-12-16T17:12:40;-2.50;99.90
10010;DHT22;5044;48.652;9.250;2022-12-16T17:15:39;-2.50;99.90
10010;DHT22;5044;48.652;9.250;2022-12-16T17:18:25;-2.50;99.90
10010;DHT22;5044;48.652;9.250;2022-12-16T17:21:09;-2.60;99.90
10010;DHT22;5044;48.652;9.250;2022-12-16T17:23:53;-2.50;99.90
10010;DHT22;5044;48.652;9.250;2022-12-16T17:26:40;-2.50;99.90
10010;DHT22;5044;48.652;9.250;2022-12-16T17:29:24;-2.40;99.90
10010;DHT22;5044;48.652;9.250;2022-12-16T17:32:09;-2.40;99.90
10010;DHT22;5044;48.652;9.250;2022-12-16T17:34:55;-2.30;99.90
10010;DHT22;5044;48.652;9.250;2022-12-16T17:37:39;-2.40;99.90
10010;DHT22;5044;48.652;9.250;2022-12-16T17:40:24;-2.40;99.90
10010;DHT22;5044;48.652;9.250;2022-12-16T17:43:08;-2.40;99.90